sensor_id;sensor_type;location;lat;lon;timestamp;temperature;humidity
4411;DHT22;2218;51.408;7.208;2023-04-07T00:00:15;19.10;35.90
4411;DHT22;2218;51.408;7.208;2023-04-07T00:02:43;19.10;35.90
4411;DHT22;2218;51.408;7.208;2023-04-07T00:05:11;19.00;35.90
4411;DHT22;2218;51.408;7.208;2023-04-07T00:07:38;19.10;36.00
4411;DHT22;2218;51.408;7.208;2023-04-07T00:10:06;19.00;35.90
4411;DHT22;2218;51.408;7.208;2023-04-07T00:12:34;19.00;36.00
4411;DHT22;2218;51.408;7.208;2023-04-07T00:15:01;19.00;36.00
4411;DHT22;2218;51.408;7.208;2023-04-07T00:17:29;19.00;36.00
4411;DHT22;2218;51.408;7.208;2023-04-07T00:19:56;19.00;36.10
4411;DHT22;2218;51.408;7.208;2023-04-07T00:22:23;19.00;36.10
4411;DHT22;2218;51.408;7.208;2023-04-07T00:24:50;19.00;36.10
4411;DHT22;2218;51.408;7.208;2023-04-07T00:27:17;19.00;36.10
4411;DHT22;2218;51.408;7.208;2023-04-07T00:29:44;19.00;36.10
4411;DHT22;2218;51.408;7.208;2023-04-07T00:32:11;19.00;36.20
4411;DHT22;2218;51.408;7.208;2023-04-07T00:34:40;19.00;36.20
4411;DHT22;2218;51.408;7.208;2023-04-07T00:37:06;19.00;36.20
4411;DHT22;2218;51.408;7.208;2023-04-07T00:39:33;19.00;36.20
4411;DHT22;2218;51.408;7.208;2023-04-07T00:42:02;19.00;36.30
4411;DHT22;2218;51.408;7.208;2023-04-07T00:44:31;19.00;36.30
4411;DHT22;2218;51.408;7.208;2023-04-07T00:46:58;19.00;36.30
4411;DHT22;2218;51.408;7.208;2023-04-07T00:49:26;19.00;36.30
4411;DHT22;2218;51.408;7.208;2023-04-07T00:51:56;19.00;36.40
4411;DHT22;2218;51.408;7.208;2023-04-07T00:54:24;19.00;36.30
4411;DHT22;2218;51.408;7.208;2023-04-07T00:56:51;19.00;36.40
4411;DHT22;2218;51.408;7.208;2023-04-07T00:59:19;19.00;36.40
4411;DHT22;2218;51.408;7.208;2023-04-07T01:01:52;19.00;36.40
4411;DHT22;2218;51.408;7.208;2023-04-07T01:04:28;19.00;36.40
4411;DHT22;2218;51.408;7.208;2023-04-07T01:07:04;19.10;36.50
4411;DHT22;2218;51.408;7.208;2023-04-07T01:09:45;19.10;36.50
4411;DHT22;2218;51.408;7.208;2023-04-07T01:12:22;19.10;36.50
4411;DHT22;2218;51.408;7.208;2023-04-07T01:15:08;19.10;36.50
4411;DHT22;2218;51.408;7.208;2023-04-07T01:17:46;19.10;36.50
4411;DHT22;2218;51.408;7.208;2023-04-07T01:20:20;19.10;36.40
4411;DHT22;2218;51.408;7.208;2023-04-07T01:22:58;19.10;36.50
4411;DHT22;2218;51.408;7.208;2023-04-07T01:25:53;19.10;36.40
4411;DHT22;2218;51.408;7.208;2023-04-07T01:29:05;19.10;36.50
4411;DHT22;2218;51.408;7.208;2023-04-07T01:31:41;19.10;36.50
4411;DHT22;2218;51.408;7.208;2023-04-07T01:34:11;19.10;36.50
4411;DHT22;2218;51.408;7.208;2023-04-07T01:36:40;19.10;36.50
4411;DHT22;2218;51.408;7.208;2023-04-07T01:39:09;19.10;36.70
4411;DHT22;2218;51.408;7.208;2023-04-07T01:41:37;19.10;36.50
4411;DHT22;2218;51.408;7.208;2023-04-07T01:44:06;19.20;36.60
4411;DHT22;2218;51.408;7.208;2023-04-07T01:46:35;19.20;36.70
4411;DHT22;2218;51.408;7.208;2023-04-07T01:49:04;19.20;36.80
4411;DHT22;2218;51.408;7.208;2023-04-07T01:51:32;19.20;36.80
4411;DHT22;2218;51.408;7.208;2023-04-07T01:54:01;19.10;36.50
4411;DHT22;2218;51.408;7.208;2023-04-07T01:56:29;19.20;36.70
4411;DHT22;2218;51.408;7.208;2023-04-07T01:58:57;19.20;36.70
4411;DHT22;2218;51.408;7.208;2023-04-07T02:01:24;19.20;36.70
4411;DHT22;2218;51.408;7.208;2023-04-07T02:03:54;19.20;37.30
4411;DHT22;2218;51.408;7.208;2023-04-07T02:06:31;19.20;36.80
4411;DHT22;2218;51.408;7.208;2023-04-07T02:09:05;19.20;36.70
4411;DHT22;2218;51.408;7.208;2023-04-07T02:11:36;19.20;36.70
4411;DHT22;2218;51.408;7.208;2023-04-07T02:14:06;19.20;36.80
4411;DHT22;2218;51.408;7.208;2023-04-07T02:16:50;19.20;36.80
4411;DHT22;2218;51.408;7.208;2023-04-07T02:19:18;19.20;36.80
4411;DHT22;2218;51.408;7.208;2023-04-07T02:21:47;19.20;36.90
4411;DHT22;2218;51.408;7.208;2023-04-07T02:24:19;19.20;36.90
4411;DHT22;2218;51.408;7.208;2023-04-07T02:26:47;19.20;36.70
4411;DHT22;2218;51.408;7.208;2023-04-07T02:29:14;19.20;37.00
4411;DHT22;2218;51.408;7.208;2023-04-07T02:31:42;19.20;37.00
4411;DHT22;2218;51.408;7.208;2023-04-07T02:34:09;19.20;37.00
4411;DHT22;2218;51.408;7.208;2023-04-07T02:36:38;19.20;36.90
4411;DHT22;2218;51.408;7.208;2023-04-07T02:39:08;19.20;37.00
4411;DHT22;2218;51.408;7.208;2023-04-07T02:41:35;19.20;37.10
4411;DHT22;2218;51.408;7.208;2023-04-07T02:44:02;19.20;37.10
4411;DHT22;2218;51.408;7.208;2023-04-07T02:46:29;19.30;37.00
4411;DHT22;2218;51.408;7.208;2023-04-07T02:48:56;19.30;37.10
4411;DHT22;2218;51.408;7.208;2023-04-07T02:51:23;19.20;37.10
4411;DHT22;2218;51.408;7.208;2023-04-07T02:53:51;19.20;37.00
4411;DHT22;2218;51.408;7.208;2023-04-07T02:56:19;19.20;37.00
4411;DHT22;2218;51.408;7.208;2023-04-07T02:58:46;19.30;37.10
4411;DHT22;2218;51.408;7.208;2023-04-07T03:01:15;19.20;37.10
4411;DHT22;2218;51.408;7.208;2023-04-07T03:03:42;19.20;37.20
4411;DHT22;2218;51.408;7.208;2023-04-07T03:06:22;19.30;37.20
4411;DHT22;2218;51.408;7.208;2023-04-07T03:08:59;19.30;37.30
4411;DHT22;2218;51.408;7.208;2023-04-07T03:11:27;19.20;37.30
4411;DHT22;2218;51.408;7.208;2023-04-07T03:13:56;19.30;37.40
4411;DHT22;2218;51.408;7.208;2023-04-07T03:16:25;19.30;37.30
4411;DHT22;2218;51.408;7.208;2023-04-07T03:19:01;19.30;37.40
4411;DHT22;2218;51.408;7.208;2023-04-07T03:21:31;19.30;37.30
4411;DHT22;2218;51.408;7.208;2023-04-07T03:23:58;19.30;37.40
4411;DHT22;2218;51.408;7.208;2023-04-07T03:26:25;19.20;37.30
4411;DHT22;2218;51.408;7.208;2023-04-07T03:28:54;19.30;37.50
4411;DHT22;2218;51.408;7.208;2023-04-07T03:31:22;19.20;37.30
4411;DHT22;2218;51.408;7.208;2023-04-07T03:33:51;19.30;37.40
4411;DHT22;2218;51.408;7.208;2023-04-07T03:36:19;19.30;37.50
4411;DHT22;2218;51.408;7.208;2023-04-07T03:38:47;19.30;37.40
4411;DHT22;2218;51.408;7.208;2023-04-07T03:41:16;19.30;37.40
4411;DHT22;2218;51.408;7.208;2023-04-07T03:43:43;19.30;37.50
4411;DHT22;2218;51.408;7.208;2023-04-07T03:46:11;19.30;37.60
4411;DHT22;2218;51.408;7.208;2023-04-07T03:48:39;19.30;37.50
4411;DHT22;2218;51.408;7.208;2023-04-07T03:51:07;19.30;37.60
4411;DHT22;2218;51.408;7.208;2023-04-07T03:53:34;19.30;37.60
4411;DHT22;2218;51.408;7.208;2023-04-07T03:56:13;19.30;37.60
4411;DHT22;2218;51.408;7.208;2023-04-07T03:58:47;19.30;37.70
4411;DHT22;2218;51.408;7.208;2023-04-07T04:01:23;19.30;37.50
4411;DHT22;2218;51.408;7.208;2023-04-07T04:03:50;19.30;37.70
4411;DHT22;2218;51.408;7.208;2023-04-07T04:06:26;19.30;37.50
4411;DHT22;2218;51.408;7.208;2023-04-07T04:08:59;19.30;37.60
4411;DHT22;2218;51.408;7.208;2023-04-07T04:11:26;19.30;37.60
4411;DHT22;2218;51.408;7.208;2023-04-07T04:13:57;19.30;37.70
4411;DHT22;2218;51.408;7.208;2023-04-07T04:16:26;19.30;37.80
4411;DHT22;2218;51.408;7.208;2023-04-07T04:18:57;19.30;37.70
4411;DHT22;2218;51.408;7.208;2023-04-07T04:21:25;19.30;37.80
4411;DHT22;2218;51.408;7.208;2023-04-07T04:23:52;19.30;37.80
4411;DHT22;2218;51.408;7.208;2023-04-07T04:26:20;19.30;37.70
4411;DHT22;2218;51.408;7.208;2023-04-07T04:28:51;19.30;37.80
4411;DHT22;2218;51.408;7.208;2023-04-07T04:31:20;19.30;37.70
4411;DHT22;2218;51.408;7.208;2023-04-07T04:33:48;19.30;37.90
4411;DHT22;2218;51.408;7.208;2023-04-07T04:36:17;19.30;38.00
4411;DHT22;2218;51.408;7.208;2023-04-07T04:38:44;19.30;37.90
4411;DHT22;2218;51.408;7.208;2023-04-07T04:41:15;19.30;37.80
4411;DHT22;2218;51.408;7.208;2023-04-07T04:43:43;19.30;37.90
4411;DHT22;2218;51.408;7.208;2023-04-07T04:46:13;19.30;38.00
4411;DHT22;2218;51.408;7.208;2023-04-07T04:48:43;19.30;37.80
4411;DHT22;2218;51.408;7.208;2023-04-07T04:51:11;19.30;37.80
4411;DHT22;2218;51.408;7.208;2023-04-07T04:53:40;19.30;37.80
4411;DHT22;2218;51.408;7.208;2023-04-07T04:56:07;19.30;38.00
4411;DHT22;2218;51.408;7.208;2023-04-07T04:58:39;19.30;37.80
4411;DHT22;2218;51.408;7.208;2023-04-07T05:01:10;19.30;37.90
4411;DHT22;2218;51.408;7.208;2023-04-07T05:03:48;19.30;38.00
4411;DHT22;2218;51.408;7.208;2023-04-07T05:06:24;19.30;38.10
4411;DHT22;2218;51.408;7.208;2023-04-07T05:08:54;19.30;38.00
4411;DHT22;2218;51.408;7.208;2023-04-07T05:11:25;19.30;38.10
4411;DHT22;2218;51.408;7.208;2023-04-07T05:13:54;19.30;38.10
4411;DHT22;2218;51.408;7.208;2023-04-07T05:16:22;19.30;38.10
4411;DHT22;2218;51.408;7.208;2023-04-07T05:18:50;19.30;38.10
4411;DHT22;2218;51.408;7.208;2023-04-07T05:21:18;19.30;38.10
4411;DHT22;2218;51.408;7.208;2023-04-07T05:23:48;19.30;38.20
4411;DHT22;2218;51.408;7.208;2023-04-07T05:26:18;19.30;38.00
4411;DHT22;2218;51.408;7.208;2023-04-07T05:28:47;19.30;38.20
4411;DHT22;2218;51.408;7.208;2023-04-07T05:31:18;19.30;38.20
4411;DHT22;2218;51.408;7.208;2023-04-07T05:33:47;19.30;38.20
4411;DHT22;2218;51.408;7.208;2023-04-07T05:36:14;19.30;38.10
4411;DHT22;2218;51.408;7.208;2023-04-07T05:38:41;19.30;38.20
4411;DHT22;2218;51.408;7.208;2023-04-07T05:41:14;19.30;38.10
4411;DHT22;2218;51.408;7.208;2023-04-07T05:43:42;19.30;38.10
4411;DHT22;2218;51.408;7.208;2023-04-07T05:46:09;19.30;38.20
4411;DHT22;2218;51.408;7.208;2023-04-07T05:48:45;19.30;38.10
4411;DHT22;2218;51.408;7.208;2023-04-07T05:51:13;19.30;38.30
4411;DHT22;2218;51.408;7.208;2023-04-07T05:53:40;19.30;38.20
4411;DHT22;2218;51.408;7.208;2023-04-07T05:56:07;19.30;38.20
4411;DHT22;2218;51.408;7.208;2023-04-07T05:58:47;19.30;38.10
4411;DHT22;2218;51.408;7.208;2023-04-07T06:01:15;19.30;38.30
4411;DHT22;2218;51.408;7.208;2023-04-07T06:03:42;19.30;38.20
4411;DHT22;2218;51.408;7.208;2023-04-07T06:06:17;19.30;38.30
4411;DHT22;2218;51.408;7.208;2023-04-07T06:08:44;19.30;38.40
4411;DHT22;2218;51.408;7.208;2023-04-07T06:11:12;19.30;38.30
4411;DHT22;2218;51.408;7.208;2023-04-07T06:13:39;19.30;38.40
4411;DHT22;2218;51.408;7.208;2023-04-07T06:16:07;19.30;38.50
4411;DHT22;2218;51.408;7.208;2023-04-07T06:18:36;19.30;38.40
4411;DHT22;2218;51.408;7.208;2023-04-07T06:21:05;19.30;38.50
4411;DHT22;2218;51.408;7.208;2023-04-07T06:23:32;19.30;38.40
4411;DHT22;2218;51.408;7.208;2023-04-07T06:25:59;19.30;38.40
4411;DHT22;2218;51.408;7.208;2023-04-07T06:28:28;19.30;38.40
4411;DHT22;2218;51.408;7.208;2023-04-07T06:30:55;19.30;38.40
4411;DHT22;2218;51.408;7.208;2023-04-07T06:33:24;19.30;38.40
4411;DHT22;2218;51.408;7.208;2023-04-07T06:35:53;19.30;38.50
4411;DHT22;2218;51.408;7.208;2023-04-07T06:38:21;19.30;38.40
4411;DHT22;2218;51.408;7.208;2023-04-07T06:40:47;19.30;38.50
4411;DHT22;2218;51.408;7.208;2023-04-07T06:43:15;19.30;38.50
4411;DHT22;2218;51.408;7.208;2023-04-07T06:45:49;19.30;38.60
4411;DHT22;2218;51.408;7.208;2023-04-07T06:48:16;19.30;38.40
4411;DHT22;2218;51.408;7.208;2023-04-07T06:50:47;19.30;38.50
4411;DHT22;2218;51.408;7.208;2023-04-07T06:53:15;19.30;38.50
4411;DHT22;2218;51.408;7.208;2023-04-07T06:55:42;19.30;38.60
4411;DHT22;2218;51.408;7.208;2023-04-07T06:58:09;19.30;38.60
4411;DHT22;2218;51.408;7.208;2023-04-07T07:00:36;19.30;38.50
4411;DHT22;2218;51.408;7.208;2023-04-07T07:03:03;19.30;38.70
4411;DHT22;2218;51.408;7.208;2023-04-07T07:05:30;19.30;38.70
4411;DHT22;2218;51.408;7.208;2023-04-07T07:07:59;19.30;38.60
4411;DHT22;2218;51.408;7.208;2023-04-07T07:10:26;19.30;38.80
4411;DHT22;2218;51.408;7.208;2023-04-07T07:12:53;19.30;38.80
4411;DHT22;2218;51.408;7.208;2023-04-07T07:15:20;19.30;38.80
4411;DHT22;2218;51.408;7.208;2023-04-07T07:17:47;19.30;38.70
4411;DHT22;2218;51.408;7.208;2023-04-07T07:20:13;19.30;38.70
4411;DHT22;2218;51.408;7.208;2023-04-07T07:22:41;19.30;38.70
4411;DHT22;2218;51.408;7.208;2023-04-07T07:25:09;19.30;38.80
4411;DHT22;2218;51.408;7.208;2023-04-07T07:27:36;19.30;38.60
4411;DHT22;2218;51.408;7.208;2023-04-07T07:30:05;19.30;38.90
4411;DHT22;2218;51.408;7.208;2023-04-07T07:32:32;19.30;38.70
4411;DHT22;2218;51.408;7.208;2023-04-07T07:34:59;19.30;38.70
4411;DHT22;2218;51.408;7.208;2023-04-07T07:37:26;19.30;38.70
4411;DHT22;2218;51.408;7.208;2023-04-07T07:39:53;19.30;38.90
4411;DHT22;2218;51.408;7.208;2023-04-07T07:42:22;19.30;38.80
4411;DHT22;2218;51.408;7.208;2023-04-07T07:44:49;19.30;39.00
4411;DHT22;2218;51.408;7.208;2023-04-07T07:47:16;19.30;38.90
4411;DHT22;2218;51.408;7.208;2023-04-07T07:49:43;19.30;38.90
4411;DHT22;2218;51.408;7.208;2023-04-07T07:52:10;19.30;38.80
4411;DHT22;2218;51.408;7.208;2023-04-07T07:54:37;19.30;38.90
4411;DHT22;2218;51.408;7.208;2023-04-07T07:57:04;19.30;38.90
4411;DHT22;2218;51.408;7.208;2023-04-07T07:59:32;19.30;39.00
4411;DHT22;2218;51.408;7.208;2023-04-07T08:02:00;19.30;38.90
4411;DHT22;2218;51.408;7.208;2023-04-07T08:04:26;19.30;38.90
4411;DHT22;2218;51.408;7.208;2023-04-07T08:06:53;19.30;38.90
4411;DHT22;2218;51.408;7.208;2023-04-07T08:09:20;19.30;38.90
4411;DHT22;2218;51.408;7.208;2023-04-07T08:11:47;19.30;39.00
4411;DHT22;2218;51.408;7.208;2023-04-07T08:14:14;19.30;39.00
4411;DHT22;2218;51.408;7.208;2023-04-07T08:16:43;19.30;38.90
4411;DHT22;2218;51.408;7.208;2023-04-07T08:19:11;19.30;39.10
4411;DHT22;2218;51.408;7.208;2023-04-07T08:21:39;19.30;39.10
4411;DHT22;2218;51.408;7.208;2023-04-07T08:24:06;19.30;39.10
4411;DHT22;2218;51.408;7.208;2023-04-07T08:26:33;19.30;39.10
4411;DHT22;2218;51.408;7.208;2023-04-07T08:29:00;19.30;39.20
4411;DHT22;2218;51.408;7.208;2023-04-07T08:31:27;19.30;39.10
4411;DHT22;2218;51.408;7.208;2023-04-07T08:33:55;19.30;39.20
4411;DHT22;2218;51.408;7.208;2023-04-07T08:36:23;19.30;39.10
4411;DHT22;2218;51.408;7.208;2023-04-07T08:38:51;19.30;39.10
4411;DHT22;2218;51.408;7.208;2023-04-07T08:41:27;19.30;39.10
4411;DHT22;2218;51.408;7.208;2023-04-07T08:44:00;19.30;39.20
4411;DHT22;2218;51.408;7.208;2023-04-07T08:46:28;19.30;39.20
4411;DHT22;2218;51.408;7.208;2023-04-07T08:48:58;19.30;39.10
4411;DHT22;2218;51.408;7.208;2023-04-07T08:51:28;19.30;39.30
4411;DHT22;2218;51.408;7.208;2023-04-07T08:54:02;19.30;39.30
4411;DHT22;2218;51.408;7.208;2023-04-07T08:56:32;19.30;39.30
4411;DHT22;2218;51.408;7.208;2023-04-07T08:59:00;19.30;39.80
4411;DHT22;2218;51.408;7.208;2023-04-07T09:01:28;19.30;39.30
4411;DHT22;2218;51.408;7.208;2023-04-07T09:03:58;19.30;39.30
4411;DHT22;2218;51.408;7.208;2023-04-07T09:06:25;19.30;39.20
4411;DHT22;2218;51.408;7.208;2023-04-07T09:08:53;19.40;39.30
4411;DHT22;2218;51.408;7.208;2023-04-07T09:11:20;19.30;39.40
4411;DHT22;2218;51.408;7.208;2023-04-07T09:13:48;19.40;39.40
4411;DHT22;2218;51.408;7.208;2023-04-07T09:16:16;19.30;39.30
4411;DHT22;2218;51.408;7.208;2023-04-07T09:18:44;19.40;39.50
4411;DHT22;2218;51.408;7.208;2023-04-07T09:21:12;19.30;39.40
4411;DHT22;2218;51.408;7.208;2023-04-07T09:23:40;19.30;39.40
4411;DHT22;2218;51.408;7.208;2023-04-07T09:26:19;19.30;39.30
4411;DHT22;2218;51.408;7.208;2023-04-07T09:28:52;19.30;39.50
4411;DHT22;2218;51.408;7.208;2023-04-07T09:31:20;19.40;39.50
4411;DHT22;2218;51.408;7.208;2023-04-07T09:33:51;19.40;39.60
4411;DHT22;2218;51.408;7.208;2023-04-07T09:36:19;19.30;39.50
4411;DHT22;2218;51.408;7.208;2023-04-07T09:38:46;19.40;39.40
4411;DHT22;2218;51.408;7.208;2023-04-07T09:41:14;19.30;39.40
4411;DHT22;2218;51.408;7.208;2023-04-07T09:43:43;19.40;39.50
4411;DHT22;2218;51.408;7.208;2023-04-07T09:46:13;19.40;39.60
4411;DHT22;2218;51.408;7.208;2023-04-07T09:48:42;19.30;39.50
4411;DHT22;2218;51.408;7.208;2023-04-07T09:51:11;19.30;39.50
4411;DHT22;2218;51.408;7.208;2023-04-07T09:53:43;19.30;39.60
4411;DHT22;2218;51.408;7.208;2023-04-07T09:56:14;19.30;39.60
4411;DHT22;2218;51.408;7.208;2023-04-07T09:58:44;19.40;39.70
4411;DHT22;2218;51.408;7.208;2023-04-07T10:01:13;19.40;39.60
4411;DHT22;2218;51.408;7.208;2023-04-07T10:03:42;19.30;39.70
4411;DHT22;2218;51.408;7.208;2023-04-07T10:06:11;19.40;39.70
4411;DHT22;2218;51.408;7.208;2023-04-07T10:08:40;19.40;39.70
4411;DHT22;2218;51.408;7.208;2023-04-07T10:11:09;19.30;39.70
4411;DHT22;2218;51.408;7.208;2023-04-07T10:13:38;19.40;39.70
4411;DHT22;2218;51.408;7.208;2023-04-07T10:16:07;19.40;39.70
4411;DHT22;2218;51.408;7.208;2023-04-07T10:18:35;19.30;39.70
4411;DHT22;2218;51.408;7.208;2023-04-07T10:21:03;19.40;39.80
4411;DHT22;2218;51.408;7.208;2023-04-07T10:23:49;19.40;39.70
4411;DHT22;2218;51.408;7.208;2023-04-07T10:26:25;19.40;39.70
4411;DHT22;2218;51.408;7.208;2023-04-07T10:29:01;19.40;39.70
4411;DHT22;2218;51.408;7.208;2023-04-07T10:31:35;19.30;39.70
4411;DHT22;2218;51.408;7.208;2023-04-07T10:34:03;19.40;39.80
4411;DHT22;2218;51.408;7.208;2023-04-07T10:36:30;19.40;39.90
4411;DHT22;2218;51.408;7.208;2023-04-07T10:39:21;19.40;39.90
4411;DHT22;2218;51.408;7.208;2023-04-07T10:41:48;19.40;39.90
4411;DHT22;2218;51.408;7.208;2023-04-07T10:44:45;19.40;39.80
4411;DHT22;2218;51.408;7.208;2023-04-07T10:47:17;19.40;39.90
4411;DHT22;2218;51.408;7.208;2023-04-07T10:50:16;19.40;40.00
4411;DHT22;2218;51.408;7.208;2023-04-07T10:52:45;19.40;40.00
4411;DHT22;2218;51.408;7.208;2023-04-07T10:55:39;19.40;39.80
4411;DHT22;2218;51.408;7.208;2023-04-07T11:01:17;19.40;40.00
4411;DHT22;2218;51.408;7.208;2023-04-07T11:03:55;19.40;39.90
4411;DHT22;2218;51.408;7.208;2023-04-07T11:06:25;19.40;40.00
4411;DHT22;2218;51.408;7.208;2023-04-07T11:08:53;19.40;40.10
4411;DHT22;2218;51.408;7.208;2023-04-07T11:11:35;19.40;40.10
4411;DHT22;2218;51.408;7.208;2023-04-07T11:14:04;19.40;40.00
4411;DHT22;2218;51.408;7.208;2023-04-07T11:16:37;19.40;40.00
4411;DHT22;2218;51.408;7.208;2023-04-07T11:19:05;19.40;40.10
4411;DHT22;2218;51.408;7.208;2023-04-07T11:21:32;19.40;40.10
4411;DHT22;2218;51.408;7.208;2023-04-07T11:23:59;19.40;40.10
4411;DHT22;2218;51.408;7.208;2023-04-07T11:26:29;19.40;40.20
4411;DHT22;2218;51.408;7.208;2023-04-07T11:29:02;19.40;40.10
4411;DHT22;2218;51.408;7.208;2023-04-07T11:31:30;19.40;40.10
4411;DHT22;2218;51.408;7.208;2023-04-07T11:33:58;19.40;40.20
4411;DHT22;2218;51.408;7.208;2023-04-07T11:36:29;19.40;40.20
4411;DHT22;2218;51.408;7.208;2023-04-07T11:38:57;19.40;40.10
4411;DHT22;2218;51.408;7.208;2023-04-07T11:41:30;19.40;40.20
4411;DHT22;2218;51.408;7.208;2023-04-07T11:44:09;19.40;40.30
4411;DHT22;2218;51.408;7.208;2023-04-07T11:46:51;19.40;40.20
4411;DHT22;2218;51.408;7.208;2023-04-07T11:49:19;19.40;40.20
4411;DHT22;2218;51.408;7.208;2023-04-07T11:51:48;19.40;40.30
4411;DHT22;2218;51.408;7.208;2023-04-07T11:54:23;19.40;40.20
4411;DHT22;2218;51.408;7.208;2023-04-07T11:56:52;19.40;40.10
4411;DHT22;2218;51.408;7.208;2023-04-07T11:59:22;19.40;40.20
4411;DHT22;2218;51.408;7.208;2023-04-07T12:01:50;19.40;40.20
4411;DHT22;2218;51.408;7.208;2023-04-07T12:04:18;19.40;40.10
4411;DHT22;2218;51.408;7.208;2023-04-07T12:06:46;19.40;40.20
4411;DHT22;2218;51.408;7.208;2023-04-07T12:09:26;19.40;40.30
4411;DHT22;2218;51.408;7.208;2023-04-07T12:11:56;19.40;40.10
4411;DHT22;2218;51.408;7.208;2023-04-07T12:14:24;19.40;40.30
4411;DHT22;2218;51.408;7.208;2023-04-07T12:16:52;19.40;40.20
4411;DHT22;2218;51.408;7.208;2023-04-07T12:19:21;19.40;40.30
4411;DHT22;2218;51.408;7.208;2023-04-07T12:21:48;19.40;40.30
4411;DHT22;2218;51.408;7.208;2023-04-07T12:24:15;19.40;40.40
4411;DHT22;2218;51.408;7.208;2023-04-07T12:26:42;19.40;40.30
4411;DHT22;2218;51.408;7.208;2023-04-07T12:29:10;19.30;40.30
4411;DHT22;2218;51.408;7.208;2023-04-07T12:31:37;19.40;40.30
4411;DHT22;2218;51.408;7.208;2023-04-07T12:34:04;19.40;40.40
4411;DHT22;2218;51.408;7.208;2023-04-07T12:36:31;19.30;40.30
4411;DHT22;2218;51.408;7.208;2023-04-07T12:38:59;19.40;40.30
4411;DHT22;2218;51.408;7.208;2023-04-07T12:41:26;19.40;40.40
4411;DHT22;2218;51.408;7.208;2023-04-07T12:43:53;19.40;40.30
4411;DHT22;2218;51.408;7.208;2023-04-07T12:46:22;19.40;40.40
4411;DHT22;2218;51.408;7.208;2023-04-07T12:48:49;19.40;40.40
4411;DHT22;2218;51.408;7.208;2023-04-07T12:51:15;19.40;40.60
4411;DHT22;2218;51.408;7.208;2023-04-07T12:53:42;19.30;40.20
4411;DHT22;2218;51.408;7.208;2023-04-07T12:56:10;19.40;40.50
4411;DHT22;2218;51.408;7.208;2023-04-07T12:58:37;19.40;40.40
4411;DHT22;2218;51.408;7.208;2023-04-07T13:01:05;19.40;40.50
4411;DHT22;2218;51.408;7.208;2023-04-07T13:03:33;19.40;40.30
4411;DHT22;2218;51.408;7.208;2023-04-07T13:06:00;19.40;40.60
4411;DHT22;2218;51.408;7.208;2023-04-07T13:08:29;19.30;40.30
4411;DHT22;2218;51.408;7.208;2023-04-07T13:10:56;19.40;40.50
4411;DHT22;2218;51.408;7.208;2023-04-07T13:13:23;19.40;40.50
4411;DHT22;2218;51.408;7.208;2023-04-07T13:15:50;19.40;40.40
4411;DHT22;2218;51.408;7.208;2023-04-07T13:18:17;19.40;40.60
4411;DHT22;2218;51.408;7.208;2023-04-07T13:20:46;19.40;40.50
4411;DHT22;2218;51.408;7.208;2023-04-07T13:23:13;19.40;40.60
4411;DHT22;2218;51.408;7.208;2023-04-07T13:25:41;19.40;40.60
4411;DHT22;2218;51.408;7.208;2023-04-07T13:28:08;19.40;40.40
4411;DHT22;2218;51.408;7.208;2023-04-07T13:30:35;19.40;40.60
4411;DHT22;2218;51.408;7.208;2023-04-07T13:33:02;19.40;40.60
4411;DHT22;2218;51.408;7.208;2023-04-07T13:35:29;19.40;40.50
4411;DHT22;2218;51.408;7.208;2023-04-07T13:38:01;19.40;40.60
4411;DHT22;2218;51.408;7.208;2023-04-07T13:40:28;19.40;40.60
4411;DHT22;2218;51.408;7.208;2023-04-07T13:42:56;19.40;40.60
4411;DHT22;2218;51.408;7.208;2023-04-07T13:45:25;19.40;40.60
4411;DHT22;2218;51.408;7.208;2023-04-07T13:47:52;19.40;40.70
4411;DHT22;2218;51.408;7.208;2023-04-07T13:50:19;19.40;40.70
4411;DHT22;2218;51.408;7.208;2023-04-07T13:52:46;19.40;40.60
4411;DHT22;2218;51.408;7.208;2023-04-07T13:55:15;19.40;40.60
4411;DHT22;2218;51.408;7.208;2023-04-07T13:57:45;19.40;40.70
4411;DHT22;2218;51.408;7.208;2023-04-07T14:00:12;19.40;40.60
4411;DHT22;2218;51.408;7.208;2023-04-07T14:02:40;19.40;40.70
4411;DHT22;2218;51.408;7.208;2023-04-07T14:05:10;19.30;40.60
4411;DHT22;2218;51.408;7.208;2023-04-07T14:07:37;19.40;40.70
4411;DHT22;2218;51.408;7.208;2023-04-07T14:10:04;19.40;40.70
4411;DHT22;2218;51.408;7.208;2023-04-07T14:12:33;19.40;40.70
4411;DHT22;2218;51.408;7.208;2023-04-07T14:15:00;19.40;40.70
4411;DHT22;2218;51.408;7.208;2023-04-07T14:17:28;19.40;40.70
4411;DHT22;2218;51.408;7.208;2023-04-07T14:19:55;19.40;40.70
4411;DHT22;2218;51.408;7.208;2023-04-07T14:22:22;19.40;40.70
4411;DHT22;2218;51.408;7.208;2023-04-07T14:24:49;19.40;40.80
4411;DHT22;2218;51.408;7.208;2023-04-07T14:27:16;19.40;40.70
4411;DHT22;2218;51.408;7.208;2023-04-07T14:29:46;19.40;40.80
4411;DHT22;2218;51.408;7.208;2023-04-07T14:32:14;19.40;40.70
4411;DHT22;2218;51.408;7.208;2023-04-07T14:34:41;19.40;40.80
4411;DHT22;2218;51.408;7.208;2023-04-07T14:37:08;19.40;40.80
4411;DHT22;2218;51.408;7.208;2023-04-07T14:39:35;19.40;40.80
4411;DHT22;2218;51.408;7.208;2023-04-07T14:42:03;19.40;40.70
4411;DHT22;2218;51.408;7.208;2023-04-07T14:44:30;19.40;40.80
4411;DHT22;2218;51.408;7.208;2023-04-07T14:46:59;19.40;40.80
4411;DHT22;2218;51.408;7.208;2023-04-07T14:49:26;19.40;40.80
4411;DHT22;2218;51.408;7.208;2023-04-07T14:51:53;19.40;40.80
4411;DHT22;2218;51.408;7.208;2023-04-07T14:54:20;19.40;40.80
4411;DHT22;2218;51.408;7.208;2023-04-07T14:56:47;19.40;40.80
4411;DHT22;2218;51.408;7.208;2023-04-07T14:59:15;19.40;40.90
4411;DHT22;2218;51.408;7.208;2023-04-07T15:01:42;19.40;40.80
4411;DHT22;2218;51.408;7.208;2023-04-07T15:04:10;19.40;40.90
4411;DHT22;2218;51.408;7.208;2023-04-07T15:06:39;19.40;40.80
4411;DHT22;2218;51.408;7.208;2023-04-07T15:09:06;19.40;40.90
4411;DHT22;2218;51.408;7.208;2023-04-07T15:11:33;19.40;40.80
4411;DHT22;2218;51.408;7.208;2023-04-07T15:14:00;19.40;40.90
4411;DHT22;2218;51.408;7.208;2023-04-07T15:16:28;19.40;40.90
4411;DHT22;2218;51.408;7.208;2023-04-07T15:18:55;19.40;40.90
4411;DHT22;2218;51.408;7.208;2023-04-07T15:21:23;19.40;40.90
4411;DHT22;2218;51.408;7.208;2023-04-07T15:23:51;19.40;40.90
4411;DHT22;2218;51.408;7.208;2023-04-07T15:26:18;19.40;40.90
4411;DHT22;2218;51.408;7.208;2023-04-07T15:28:45;19.40;40.80
4411;DHT22;2218;51.408;7.208;2023-04-07T15:31:12;19.40;40.90
4411;DHT22;2218;51.408;7.208;2023-04-07T15:33:39;19.40;41.00
4411;DHT22;2218;51.408;7.208;2023-04-07T15:36:08;19.40;41.00
4411;DHT22;2218;51.408;7.208;2023-04-07T15:38:37;19.40;41.00
4411;DHT22;2218;51.408;7.208;2023-04-07T15:41:05;19.40;41.00
4411;DHT22;2218;51.408;7.208;2023-04-07T15:43:31;19.40;41.00
4411;DHT22;2218;51.408;7.208;2023-04-07T15:45:59;19.40;41.00
4411;DHT22;2218;51.408;7.208;2023-04-07T15:48:26;19.40;41.00
4411;DHT22;2218;51.408;7.208;2023-04-07T15:50:53;19.40;40.90
4411;DHT22;2218;51.408;7.208;2023-04-07T15:53:20;19.40;41.00
4411;DHT22;2218;51.408;7.208;2023-04-07T15:55:48;19.40;40.90
4411;DHT22;2218;51.408;7.208;2023-04-07T15:58:15;19.40;41.10
4411;DHT22;2218;51.408;7.208;2023-04-07T16:00:42;19.40;41.00
4411;DHT22;2218;51.408;7.208;2023-04-07T16:03:09;19.40;41.00
4411;DHT22;2218;51.408;7.208;2023-04-07T16:05:37;19.40;41.10
4411;DHT22;2218;51.408;7.208;2023-04-07T16:08:04;19.40;41.10
4411;DHT22;2218;51.408;7.208;2023-04-07T16:10:31;19.40;41.10
4411;DHT22;2218;51.408;7.208;2023-04-07T16:12:59;19.40;41.00
4411;DHT22;2218;51.408;7.208;2023-04-07T16:15:26;19.40;41.10
4411;DHT22;2218;51.408;7.208;2023-04-07T16:17:53;19.40;41.00